createdAt,value
2022-11-17T00:04:34.193Z,0
2022-11-17T00:09:58.808Z,0
2022-11-17T00:20:33.594Z,0
2022-11-17T00:25:50.999Z,0
2022-11-17T00:31:08.279Z,0
2022-11-17T00:36:26.763Z,0
2022-11-17T00:41:44.347Z,0
2022-11-17T00:47:01.577Z,0
2022-11-17T00:52:19.088Z,0
2022-11-17T00:57:36.405Z,0
2022-11-17T01:02:56.526Z,0
2022-11-17T01:08:13.730Z,0
2022-11-17T01:13:31.990Z,0
2022-11-17T01:18:52.240Z,0
2022-11-17T01:24:09.753Z,0
2022-11-17T01:29:29.801Z,0
2022-11-17T01:40:07.090Z,0
2022-11-17T01:45:24.465Z,0
2022-11-17T01:50:44.020Z,0
2022-11-17T01:56:01.349Z,0
2022-11-17T02:01:18.675Z,0
2022-11-17T02:06:35.950Z,0
2022-11-17T02:12:13.907Z,0
2022-11-17T02:17:31.333Z,0
2022-11-17T02:22:48.457Z,0
2022-11-17T02:28:05.693Z,0
2022-11-17T02:33:22.941Z,0
2022-11-17T02:38:40.035Z,0
2022-11-17T02:43:57.445Z,0
2022-11-17T02:49:14.629Z,0
2022-11-17T02:54:31.887Z,0
2022-11-17T02:59:49.172Z,0
2022-11-17T03:05:08.713Z,0
2022-11-17T03:10:26.398Z,0
2022-11-17T03:15:43.643Z,0
2022-11-17T03:21:01.204Z,0
2022-11-17T03:26:18.442Z,0
2022-11-17T03:31:36.013Z,0
2022-11-17T03:36:53.331Z,0
2022-11-17T03:42:10.803Z,0
2022-11-17T03:47:30.262Z,0
2022-11-17T03:52:47.664Z,0
2022-11-17T03:58:15.072Z,0
2022-11-17T04:03:33.168Z,0
2022-11-17T04:08:50.577Z,0
2022-11-17T04:19:28.668Z,0
2022-11-17T04:24:46.314Z,0
2022-11-17T04:30:03.618Z,0
2022-11-17T04:35:20.730Z,0
2022-11-17T04:40:38.099Z,0
2022-11-17T04:45:55.319Z,0
2022-11-17T04:51:12.479Z,0
2022-11-17T04:56:29.772Z,0
2022-11-17T05:02:06.038Z,0
2022-11-17T05:07:23.577Z,0
2022-11-17T05:18:05.921Z,0
2022-11-17T05:23:23.566Z,0
2022-11-17T05:28:40.866Z,0
2022-11-17T05:34:00.811Z,0
2022-11-17T05:39:18.176Z,0
2022-11-17T05:44:35.533Z,0
2022-11-17T05:49:52.685Z,0
2022-11-17T05:55:10.069Z,0
2022-11-17T06:00:27.500Z,0
2022-11-17T06:05:44.786Z,0
2022-11-17T06:11:02.094Z,0
2022-11-17T06:16:19.785Z,0
2022-11-17T06:21:56.733Z,0
2022-11-17T06:27:27.622Z,0
2022-11-17T06:33:02.426Z,0.9
2022-11-17T06:38:19.892Z,27.9
2022-11-17T06:43:37.114Z,72.9
2022-11-17T06:48:54.414Z,131.7
2022-11-17T06:54:11.195Z,210.4
2022-11-17T06:59:28.223Z,278.8
2022-11-17T07:04:45.201Z,384.2
2022-11-17T07:10:05.253Z,519.2
2022-11-17T07:15:22.294Z,616.2
2022-11-17T07:20:39.535Z,656.2
2022-11-17T07:25:56.749Z,976.7
2022-11-17T07:31:13.822Z,1055
2022-11-17T07:36:31.163Z,1415.8
2022-11-17T07:41:48.198Z,2601.7
2022-11-17T07:47:05.277Z,3562.1
2022-11-17T07:52:22.697Z,3775.8
2022-11-17T08:02:57.047Z,4102.5
2022-11-17T08:08:14.417Z,4079.2
2022-11-17T08:13:31.552Z,5384.2
2022-11-17T08:18:52.281Z,5393.8
2022-11-17T08:24:08.634Z,5221.7
2022-11-17T08:29:25.783Z,4321.7
2022-11-17T08:34:42.314Z,5360.8
2022-11-17T08:39:59.019Z,6306.3
2022-11-17T09:29:04.974Z,8009.6
2022-11-17T09:34:29.554Z,5174.2
2022-11-17T09:45:12.405Z,10071.7
2022-11-17T09:50:37.686Z,6941.3
2022-11-17T09:56:01.310Z,9337.1
2022-11-17T10:01:19.318Z,9643.7
2022-11-17T10:06:36.404Z,9035
2022-11-17T10:12:00.912Z,5855.4
2022-11-17T10:17:18.599Z,7150.8
2022-11-17T10:22:34.852Z,7825
2022-11-17T10:28:00.460Z,11748.7
2022-11-17T10:33:17.717Z,8277.9
2022-11-17T10:38:43.992Z,13762.9
2022-11-17T10:44:09.015Z,6925.4
2022-11-17T10:49:34.735Z,14149.6
2022-11-17T10:55:00.669Z,10724.6
2022-11-17T11:00:17.779Z,9991.2
2022-11-17T11:05:35.150Z,15633.3
2022-11-17T11:16:08.253Z,15565.4
2022-11-17T11:21:34.979Z,11646.2
2022-11-17T11:26:52.292Z,12542.9
2022-11-17T11:32:10.260Z,12924.6
2022-11-17T11:37:26.339Z,10637.1
2022-11-17T11:42:43.931Z,12047.1
2022-11-17T11:48:00.565Z,11394.6
2022-11-17T11:53:17.289Z,11053.8
2022-11-17T11:58:34.285Z,10747.5
2022-11-17T12:03:51.998Z,10495.4
2022-11-17T12:09:18.142Z,9747.5
2022-11-17T12:14:42.927Z,9780
2022-11-17T12:20:10.978Z,9250.8
2022-11-17T12:25:39.487Z,9345
2022-11-17T12:30:56.617Z,9045.8
2022-11-17T12:41:30.541Z,8847.1
2022-11-17T12:46:47.675Z,9360
2022-11-17T12:52:04.791Z,9712.1
2022-11-17T12:57:22.065Z,9984.6
2022-11-17T13:02:39.474Z,10010
2022-11-17T13:07:56.326Z,9839.2
2022-11-17T13:13:13.136Z,9993.3
2022-11-17T13:18:30.260Z,9090.4
2022-11-17T13:23:47.407Z,8860.4
2022-11-17T13:29:04.130Z,8390
2022-11-17T13:34:21.188Z,7160.4
2022-11-17T13:39:38.157Z,6689.6
2022-11-17T13:44:55.229Z,7280.8
2022-11-17T13:50:12.193Z,7722.1
2022-11-17T13:55:32.900Z,7906.2
2022-11-17T14:00:49.834Z,8002.1
2022-11-17T14:06:06.850Z,9860.8
2022-11-17T14:11:23.791Z,7601.7
2022-11-17T14:16:40.636Z,6862.1
2022-11-17T14:21:57.728Z,5607.5
2022-11-17T14:27:14.433Z,4360
2022-11-17T14:32:31.493Z,4435.8
2022-11-17T14:37:48.457Z,4202.1
2022-11-17T14:43:05.026Z,3435.8
2022-11-17T14:48:29.487Z,2795.4
2022-11-17T14:53:46.583Z,2165
2022-11-17T14:59:03.271Z,1797.5
2022-11-17T15:04:48.646Z,1616.2
2022-11-17T15:10:06.279Z,1527.1
2022-11-17T15:15:23.298Z,1382.5
2022-11-17T15:20:40.664Z,1120.8
2022-11-17T15:25:57.421Z,696.2
2022-11-17T15:41:57.083Z,290
2022-11-17T15:47:14.021Z,202.9
2022-11-17T15:52:49.032Z,123.7
2022-11-17T15:58:14.012Z,63.3
2022-11-17T16:03:30.835Z,30.4
2022-11-17T16:08:48.159Z,0.5
2022-11-17T16:14:05.346Z,0
2022-11-17T16:19:22.663Z,0
2022-11-17T16:24:48.668Z,0
2022-11-17T16:31:23.441Z,0
2022-11-17T16:36:41.526Z,0
2022-11-17T16:41:58.627Z,0
2022-11-17T16:47:18.056Z,0
2022-11-17T16:52:35.247Z,0
2022-11-17T16:57:59.323Z,0
2022-11-17T17:08:36.697Z,0
2022-11-17T17:13:53.963Z,0
2022-11-17T17:19:17.084Z,0
2022-11-17T17:24:34.651Z,0
2022-11-17T17:29:52.165Z,0
2022-11-17T17:40:47.076Z,0
2022-11-17T17:46:04.583Z,0
2022-11-17T17:51:21.826Z,0
2022-11-17T17:57:00.828Z,0
2022-11-17T18:02:18.350Z,0
2022-11-17T18:07:35.578Z,0
2022-11-17T18:12:53.152Z,0
2022-11-17T18:18:10.535Z,0
2022-11-17T18:23:30.898Z,0
2022-11-17T18:28:48.818Z,0
2022-11-17T18:39:23.610Z,0
2022-11-17T18:44:41.032Z,0
2022-11-17T18:49:58.332Z,0
2022-11-17T18:55:15.415Z,0
2022-11-17T19:00:32.848Z,0
2022-11-17T19:05:50.244Z,0
2022-11-17T19:11:08.614Z,0
2022-11-17T19:16:25.830Z,0
2022-11-17T19:21:42.895Z,0
2022-11-17T19:27:00.289Z,0
2022-11-17T19:32:19.740Z,0
2022-11-17T19:37:37.677Z,0
2022-11-17T19:43:02.107Z,0
2022-11-17T19:48:20.159Z,0
2022-11-17T19:53:40.143Z,0
2022-11-17T19:59:00.458Z,0
2022-11-17T20:04:17.985Z,0
2022-11-17T20:09:35.417Z,0
2022-11-17T20:14:55.058Z,0
2022-11-17T20:20:12.538Z,0
2022-11-17T20:25:32.099Z,0
2022-11-17T20:30:49.639Z,0
2022-11-17T20:36:07.076Z,0
2022-11-17T20:41:24.400Z,0
2022-11-17T20:46:41.624Z,0
2022-11-17T20:51:58.855Z,0
2022-11-17T21:02:33.233Z,0
2022-11-17T21:07:50.813Z,0
2022-11-17T21:13:08.358Z,0
2022-11-17T21:18:26.065Z,0
2022-11-17T21:29:06.851Z,0
2022-11-17T21:34:24.601Z,0
2022-11-17T21:39:45.102Z,0
2022-11-17T21:45:02.592Z,0
2022-11-17T21:50:21.909Z,0
2022-11-17T21:55:39.278Z,0
2022-11-17T22:00:56.568Z,0
2022-11-17T22:06:14.173Z,0
2022-11-17T22:11:31.374Z,0
2022-11-17T22:16:48.853Z,0
2022-11-17T22:22:06.378Z,0
2022-11-17T22:27:23.705Z,0
2022-11-17T22:32:45.049Z,0
2022-11-17T22:38:02.899Z,0
2022-11-17T22:43:20.268Z,0
2022-11-17T22:48:37.767Z,0
2022-11-17T22:53:54.932Z,0
2022-11-17T22:59:12.223Z,0
2022-11-17T23:04:29.650Z,0
2022-11-17T23:09:47.355Z,0
2022-11-17T23:15:05.374Z,0
2022-11-17T23:20:25.408Z,0
2022-11-17T23:25:42.930Z,0
2022-11-17T23:36:17.686Z,0
2022-11-17T23:41:35.027Z,0
2022-11-17T23:46:52.183Z,0
2022-11-17T23:52:09.779Z,0
2022-11-17T23:57:27.046Z,0
